Shiloh Hill, Illinois
Current Conditions -  °F | °C
As of 2:15 AM on Saturday 25 Oct 2014 (Local Time) from KSAR Reporting Station
Clear Clear  
Wind Chill: 59°   Ceiling: Unl
Heat Index: 59°   Visibility: 10mi
Dew Point: 54°   Wind: 6mph
Humidity: 83%   Direction: 180°S
Pressure: 30.01"   Gusts: NA
Location:  37.9147°N, 89.5934°W
Report Text: KSAR 250715Z AUTO 18005KT 10SM CLR 15/12 A3001 RMK AO2 T01510123
Loading
Personal Weather Stations






























Interactive Weather Map
Tropical Storm Tracking
New forecast layout! Learn more

10-Day Weather Forecast

Advertisements
Track Severe Weather on mobile